Time;durP1;ratioP1;P1;durP2;ratioP2;P2;SDS_P1;SDS_P2;PMS_P1;PMS_P2;Temp;Humidity;BMP_temperature;BMP_pressure;BME280_temperature;BME280_humidity;BME280_pressure;Samples;Min_cycle;Max_cycle;Signal;HPM_P1;HPM_P2
2023/01/28 00:10:19;;;;;;;43.80;30.20;;;;;;;-2.79;100.00;100207.69;102437;1294;600026;-69
2023/01/28 00:12:49;;;;;;;41.60;26.20;;;;;;;-2.81;100.00;100209.45;104731;1267;61004;-68
2023/01/28 00:15:18;;;;;;;38.60;27.00;;;;;;;-2.79;100.00;100209.29;108558;1266;61048;-69
2023/01/28 00:17:48;;;;;;;36.60;25.40;;;;;;;-2.76;100.00;100211.83;108481;1266;71556;-71
2023/01/28 00:20:16;;;;;;;38.30;23.90;;;;;;;-2.73;100.00;100211.52;108548;1265;67121;-68
2023/01/28 00:22:47;;;;;;;42.80;27.10;;;;;;;-2.70;100.00;100211.34;108606;1265;73588;-67
2023/01/28 00:25:18;;;;;;;39.30;24.50;;;;;;;-2.69;100.00;100215.83;108090;1264;61733;-66
2023/01/28 00:27:48;;;;;;;36.00;22.40;;;;;;;-2.70;100.00;100216.08;108647;1263;59210;-67
2023/01/28 00:30:17;;;;;;;36.00;23.40;;;;;;;-2.72;100.00;100210.51;108602;1263;70354;-67
2023/01/28 00:32:46;;;;;;;32.90;22.70;;;;;;;-2.69;100.00;100211.27;108601;1263;68122;-68
2023/01/28 00:35:14;;;;;;;30.70;21.70;;;;;;;-2.67;100.00;100210.37;108648;1264;72627;-67
2023/01/28 00:37:45;;;;;;;37.30;22.10;;;;;;;-2.61;100.00;100214.05;108634;1263;57875;-70
2023/01/28 00:40:13;;;;;;;38.30;23.00;;;;;;;-2.60;100.00;100206.34;108501;1263;61523;-65
2023/01/28 00:42:41;;;;;;;31.10;19.10;;;;;;;-2.62;100.00;100207.64;108678;1263;71957;-65
2023/01/28 00:45:09;;;;;;;37.80;24.30;;;;;;;-2.66;100.00;100200.44;108654;1263;68278;-69
2023/01/28 00:47:38;;;;;;;34.80;22.10;;;;;;;-2.64;100.00;100199.38;108539;1264;71736;-67
2023/01/28 00:50:06;;;;;;;34.90;22.80;;;;;;;-2.61;100.00;100201.91;108694;1264;57612;-68
2023/01/28 00:52:34;;;;;;;34.60;22.30;;;;;;;-2.63;100.00;100200.36;108558;1264;58937;-68
2023/01/28 00:55:03;;;;;;;34.90;23.10;;;;;;;-2.61;100.00;100204.86;108743;1263;71731;-69
2023/01/28 00:57:32;;;;;;;33.20;22.00;;;;;;;-2.63;100.00;100208.39;108736;1263;67173;-68
2023/01/28 01:00:00;;;;;;;34.20;23.10;;;;;;;-2.64;100.00;100208.98;108764;1263;72635;-68
2023/01/28 01:02:29;;;;;;;31.90;22.40;;;;;;;-2.62;100.00;100212.67;108739;1263;60259;-68
2023/01/28 01:04:57;;;;;;;40.60;25.60;;;;;;;-2.60;100.00;100210.09;109125;1257;57929;-67
2023/01/28 01:07:40;;;;;;;35.30;22.80;;;;;;;-2.60;100.00;100207.98;109104;1257;72055;-68
2023/01/28 01:10:13;;;;;;;39.20;23.30;;;;;;;-2.59;100.00;100207.54;108375;1256;1002290;-68
2023/01/28 01:12:41;;;;;;;35.00;24.20;;;;;;;-2.60;100.00;100204.27;109106;1256;72865;-68
2023/01/28 01:15:10;;;;;;;33.50;22.20;;;;;;;-2.65;100.00;100199.98;109144;1257;60038;-66
2023/01/28 01:17:43;;;;;;;36.40;22.90;;;;;;;-2.70;100.00;100195.54;108993;1258;61242;-68
2023/01/28 01:20:14;;;;;;;30.90;19.70;;;;;;;-2.71;100.00;100188.13;109108;1257;73325;-67
2023/01/28 01:22:42;;;;;;;41.10;25.80;;;;;;;-2.74;100.00;100188.06;109115;1257;67143;-68
2023/01/28 01:25:11;;;;;;;33.30;20.50;;;;;;;-2.74;100.00;100189.15;109089;1257;71640;-68
2023/01/28 01:27:42;;;;;;;28.00;19.70;;;;;;;-2.70;100.00;100187.23;109114;1257;58874;-68
2023/01/28 01:30:11;;;;;;;35.70;21.90;;;;;;;-2.67;100.00;100184.23;109153;1257;59344;-69
2023/01/28 01:32:40;;;;;;;36.70;23.00;;;;;;;-2.69;100.00;100187.55;109149;1257;71908;-65
2023/01/28 01:35:08;;;;;;;37.30;24.20;;;;;;;-2.70;100.00;100187.01;109116;1257;67393;-66
2023/01/28 01:37:38;;;;;;;29.60;20.30;;;;;;;-2.72;100.00;100197.88;109082;1257;71183;-66
2023/01/28 01:40:08;;;;;;;33.00;20.90;;;;;;;-2.73;100.00;100194.13;109076;1257;61400;-67
2023/01/28 01:42:36;;;;;;;34.50;23.10;;;;;;;-2.74;100.00;100194.77;109131;1257;58946;-66
2023/01/28 01:45:06;;;;;;;33.80;24.80;;;;;;;-2.70;100.00;100193.86;109110;1257;72175;-67
2023/01/28 01:47:43;;;;;;;38.10;23.50;;;;;;;-2.67;100.00;100194.71;109120;1257;67651;-66
2023/01/28 01:50:14;;;;;;;41.50;23.60;;;;;;;-2.67;100.00;100191.38;109072;1257;70836;-67
2023/01/28 01:52:42;;;;;;;41.50;23.40;;;;;;;-2.69;100.00;100183.56;109072;1257;60690;-67
2023/01/28 01:55:12;;;;;;;37.30;22.80;;;;;;;-2.70;100.00;100182.08;109110;1257;58864;-67
2023/01/28 01:57:41;;;;;;;38.30;24.00;;;;;;;-2.73;100.00;100176.73;108267;1257;1002115;-67
2023/01/28 02:00:09;;;;;;;27.00;19.70;;;;;;;-2.72;100.00;100179.59;108941;1257;66950;-69
2023/01/28 02:02:45;;;;;;;38.00;27.60;;;;;;;-2.68;100.00;100175.18;109102;1257;72546;-67
2023/01/28 05:58:04;;;;;;;58.90;32.50;;;;;;;-4.49;100.00;100218.60;102283;1295;600359;-69
2023/01/28 06:00:32;;;;;;;60.50;33.70;;;;;;;-4.57;100.00;100214.11;104667;1273;61555;-69
2023/01/28 06:03:01;;;;;;;58.50;33.80;;;;;;;-4.58;100.00;100220.00;104618;1269;60954;-70
2023/01/28 06:05:30;;;;;;;63.20;36.90;;;;;;;-4.55;100.00;100216.75;105252;1260;71402;-70
2023/01/28 06:07:59;;;;;;;59.90;34.40;;;;;;;-4.50;100.00;100215.09;105267;1260;69242;-67
2023/01/28 06:10:27;;;;;;;63.60;35.30;;;;;;;-4.43;100.00;100211.98;105196;1262;72333;-68
2023/01/28 06:12:55;;;;;;;60.20;34.90;;;;;;;-4.36;100.00;100216.20;104885;1256;60933;-69
2023/01/28 06:15:30;;;;;;;51.60;32.70;;;;;;;-4.29;100.00;100216.79;105171;1257;59895;-68
2023/01/28 06:18:14;;;;;;;50.40;30.40;;;;;;;-4.23;100.00;100212.85;105242;1257;73662;-68
2023/01/28 06:20:42;;;;;;;56.10;31.80;;;;;;;-4.20;100.00;100212.27;105426;1256;67096;-69
2023/01/28 06:23:11;;;;;;;45.90;26.80;;;;;;;-4.18;100.00;100205.58;105685;1256;73698;-69
2023/01/28 06:25:39;;;;;;;41.40;22.90;;;;;;;-4.17;100.00;100208.44;105691;1257;61729;-68
2023/01/28 06:28:11;;;;;;;40.60;25.00;;;;;;;-4.20;100.00;100215.27;105481;1261;59598;-66
2023/01/28 06:30:40;;;;;;;50.80;30.70;;;;;;;-4.21;100.00;100218.66;105121;1260;72323;-70
2023/01/28 06:33:08;;;;;;;52.30;29.90;;;;;;;-4.18;100.00;100218.59;105383;1259;68572;-70
2023/01/28 06:35:39;;;;;;;47.60;28.30;;;;;;;-4.18;100.00;100219.13;105785;1256;72949;-68
2023/01/28 06:38:07;;;;;;;60.50;35.60;;;;;;;-4.23;100.00;100217.65;105247;1257;61364;-69
2023/01/28 06:40:36;;;;;;;112.40;66.30;;;;;;;-4.27;100.00;100217.11;105220;1256;59804;-69
2023/01/28 06:43:04;;;;;;;100.40;56.80;;;;;;;-4.29;100.00;100221.66;104447;1260;1002975;-69
2023/01/28 06:45:34;;;;;;;98.60;54.60;;;;;;;-4.27;100.00;100228.29;105287;1262;68463;-69
2023/01/28 06:48:03;;;;;;;60.20;36.90;;;;;;;-4.25;100.00;100232.28;105307;1257;72377;-68
2023/01/28 06:50:35;;;;;;;51.90;30.50;;;;;;;-4.28;100.00;100231.92;105206;1260;59936;-68
2023/01/28 06:53:04;;;;;;;51.50;30.70;;;;;;;-4.31;100.00;100231.38;105252;1256;60338;-70
2023/01/28 06:55:32;;;;;;;49.00;32.30;;;;;;;-4.32;100.00;100231.22;105176;1262;73201;-69
2023/01/28 06:58:00;;;;;;;48.20;33.80;;;;;;;-4.28;100.00;100222.51;105189;1257;68924;-70
2023/01/28 07:00:30;;;;;;;38.30;24.40;;;;;;;-4.22;100.00;100222.96;105141;1256;73651;-68
2023/01/28 07:02:58;;;;;;;37.10;24.80;;;;;;;-4.17;100.00;100222.72;105392;1259;61341;-68
2023/01/28 07:05:26;;;;;;;41.30;25.80;;;;;;;-4.21;100.00;100224.28;105757;1256;61768;-68
2023/01/28 07:07:55;;;;;;;56.10;31.20;;;;;;;-4.25;100.00;100220.39;105444;1257;74519;-71
2023/01/28 07:10:23;;;;;;;45.70;28.30;;;;;;;-4.28;100.00;100220.15;105745;1260;69479;-71
2023/01/28 07:12:52;;;;;;;40.90;26.00;;;;;;;-4.33;100.00;100225.55;105306;1256;74487;-71
2023/01/28 07:15:20;;;;;;;42.70;24.60;;;;;;;-4.32;100.00;100233.16;104162;1262;1003539;-68
2023/01/28 07:17:48;;;;;;;48.00;27.10;;;;;;;-4.29;100.00;100234.81;104998;1257;59748;-70
2023/01/28 07:20:17;;;;;;;38.10;23.90;;;;;;;-4.28;100.00;100231.20;105539;1256;72421;-70
2023/01/28 07:22:45;;;;;;;40.70;26.90;;;;;;;-4.22;100.00;100233.10;105740;1257;68414;-69
2023/01/28 07:25:14;;;;;;;37.70;22.90;;;;;;;-4.19;100.00;100233.52;105545;1262;72923;-70
2023/01/28 07:27:49;;;;;;;51.20;31.70;;;;;;;-4.21;100.00;100232.80;105278;1257;62215;-70
2023/01/28 07:30:23;;;;;;;48.00;27.10;;;;;;;-4.18;100.00;100230.25;105630;1262;61182;-67
2023/01/28 07:32:53;;;;;;;48.00;29.20;;;;;;;-4.12;100.00;100229.02;105596;1263;74296;-73
2023/01/28 07:35:22;;;;;;;56.00;32.70;;;;;;;-4.07;100.00;100223.45;105554;1262;68480;-70
2023/01/28 07:37:54;;;;;;;55.30;34.30;;;;;;;-4.02;100.00;100219.65;105731;1256;74512;-72
2023/01/28 07:40:23;;;;;;;39.10;25.30;;;;;;;-3.93;100.00;100212.02;105533;1257;59567;-70
2023/01/28 07:42:52;;;;;;;47.90;27.80;;;;;;;-3.99;100.00;100208.86;105027;1261;60581;-69
2023/01/28 07:45:23;;;;;;;49.10;29.80;;;;;;;-4.03;100.00;100205.17;105296;1262;74895;-68
2023/01/28 07:48:00;;;;;;;41.80;27.30;;;;;;;-4.02;100.00;100209.66;105796;1260;68146;-72
2023/01/28 07:50:29;;;;;;;42.00;26.30;;;;;;;-3.95;100.00;100212.38;105653;1257;71675;-69
2023/01/28 07:52:57;;;;;;;48.00;29.00;;;;;;;-3.86;100.00;100216.79;105323;1261;59644;-69
2023/01/28 07:55:26;;;;;;;42.30;29.10;;;;;;;-3.80;100.00;100217.79;105223;1259;61446;-70
2023/01/28 07:57:59;;;;;;;44.00;26.00;;;;;;;-3.77;100.00;100226.06;105007;1261;74385;-69
2023/01/28 08:00:28;;;;;;;61.30;36.60;;;;;;;-3.78;100.00;100230.33;105347;1261;67790;-68
2023/01/28 08:02:58;;;;;;;48.40;30.90;;;;;;;-3.77;100.00;100236.94;105428;1258;72026;-69
2023/01/28 08:05:31;;;;;;;42.60;28.30;;;;;;;-3.77;100.00;100244.61;105544;1261;62681;-68
2023/01/28 08:07:59;;;;;;;49.20;29.70;;;;;;;-3.75;100.00;100242.63;105448;1257;61926;-69
2023/01/28 08:10:29;;;;;;;39.30;25.90;;;;;;;-3.71;100.00;100246.66;105765;1257;74107;-70
2023/01/28 08:12:58;;;;;;;57.30;32.00;;;;;;;-3.72;100.00;100242.23;105281;1257;68038;-69
2023/01/28 08:15:27;;;;;;;47.40;30.50;;;;;;;-3.72;100.00;100240.63;105274;1256;72492;-69
2023/01/28 08:17:57;;;;;;;62.30;38.50;;;;;;;-3.72;100.00;100238.58;104926;1261;1003087;-68
2023/01/28 08:20:26;;;;;;;63.70;36.10;;;;;;;-3.72;100.00;100235.77;105194;1258;61568;-71
2023/01/28 08:23:11;;;;;;;51.70;34.20;;;;;;;-3.71;100.00;100235.95;105646;1261;72400;-70
2023/01/28 08:25:39;;;;;;;40.80;27.80;;;;;;;-3.65;100.00;100231.71;104969;1257;1003041;-72
2023/01/28 08:28:08;;;;;;;43.40;26.70;;;;;;;-3.61;100.00;100236.46;105622;1257;72626;-71
2023/01/28 08:30:37;;;;;;;39.90;25.00;;;;;;;-3.62;100.00;100238.09;105652;1256;60084;-70
2023/01/28 08:33:07;;;;;;;37.50;24.90;;;;;;;-3.66;100.00;100236.71;105680;1256;61682;-70
2023/01/28 08:35:35;;;;;;;45.60;27.10;;;;;;;-3.64;100.00;100233.04;105696;1262;74646;-73
2023/01/28 08:38:05;;;;;;;48.40;29.40;;;;;;;-3.59;100.00;100233.45;105658;1257;68366;-71
2023/01/28 08:40:33;;;;;;;40.20;23.10;;;;;;;-3.54;100.00;100237.47;105454;1256;74045;-69
2023/01/28 08:43:02;;;;;;;36.70;23.80;;;;;;;-3.49;100.00;100231.97;104619;1261;1003643;-69
2023/01/28 08:45:31;;;;;;;37.90;23.10;;;;;;;-3.50;100.00;100226.41;105240;1257;62634;-70
2023/01/28 08:48:00;;;;;;;34.70;24.60;;;;;;;-3.46;100.00;100223.08;105807;1257;73762;-68
2023/01/28 08:50:31;;;;;;;35.70;23.10;;;;;;;-3.43;100.00;100222.83;105246;1262;67784;-69
2023/01/28 08:53:11;;;;;;;34.90;22.40;;;;;;;-3.39;100.00;100218.73;105152;1257;73623;-68
2023/01/28 08:55:39;;;;;;;39.20;25.30;;;;;;;-3.37;100.00;100214.33;105129;1257;60433;-69
2023/01/28 08:58:12;;;;;;;44.50;25.10;;;;;;;-3.36;100.00;100214.73;105295;1258;61268;-67
2023/01/28 09:00:40;;;;;;;42.40;24.10;;;;;;;-3.31;100.00;100209.66;105303;1257;74279;-66
2023/01/28 09:03:08;;;;;;;38.10;22.90;;;;;;;-3.26;100.00;100202.48;105377;1262;67602;-68
2023/01/28 09:05:37;;;;;;;46.70;29.80;;;;;;;-3.20;100.00;100199.48;105276;1256;71991;-69
2023/01/28 09:08:08;;;;;;;40.80;25.20;;;;;;;-3.18;100.00;100189.27;105577;1256;61121;-70
2023/01/28 09:10:37;;;;;;;51.50;28.50;;;;;;;-3.16;100.00;100187.46;105256;1256;61893;-70
2023/01/28 09:13:06;;;;;;;57.10;31.60;;;;;;;-3.12;100.00;100185.92;105661;1259;74580;-70
2023/01/28 09:15:34;;;;;;;50.60;30.20;;;;;;;-3.10;100.00;100184.31;105717;1257;67504;-73
2023/01/28 09:18:04;;;;;;;39.50;23.70;;;;;;;-3.07;99.91;100183.44;105756;1257;73161;-72
2023/01/28 09:20:32;;;;;;;38.40;24.00;;;;;;;-3.03;99.90;100180.25;105573;1262;59695;-73
2023/01/28 09:23:00;;;;;;;40.30;25.80;;;;;;;-2.96;99.67;100181.14;105476;1262;59630;-73
2023/01/28 09:25:29;;;;;;;50.40;27.30;;;;;;;-2.90;98.65;100177.79;105491;1262;72530;-71
2023/01/28 09:27:57;;;;;;;33.90;22.70;;;;;;;-2.87;98.87;100175.34;105611;1257;69541;-71
2023/01/28 09:30:25;;;;;;;33.20;23.20;;;;;;;-2.81;98.54;100169.45;105758;1257;74368;-72
2023/01/28 09:32:54;;;;;;;33.70;24.00;;;;;;;-2.76;98.24;100168.08;105652;1257;62644;-70
2023/01/28 09:35:22;;;;;;;43.50;25.20;;;;;;;-2.71;97.56;100163.24;105687;1257;60659;-70
2023/01/28 09:37:50;;;;;;;37.80;24.10;;;;;;;-2.68;96.99;100161.48;105735;1261;74082;-71
2023/01/28 09:40:39;;;;;;;37.20;25.40;;;;;;;-2.57;96.97;100160.42;102223;1297;600285;-70
2023/01/28 09:43:32;;;;;;;32.40;21.80;;;;;;;-2.54;96.66;100162.05;104518;1271;59749;-69
2023/01/28 09:46:04;;;;;;;33.20;20.90;;;;;;;-2.46;96.58;100159.63;104866;1269;60612;-70
2023/01/28 09:48:44;;;;;;;37.50;24.10;;;;;;;-2.44;95.32;100156.23;104446;1269;74471;-70
2023/01/28 09:51:31;;;;;;;34.20;23.60;;;;;;;-2.49;94.52;100159.02;104859;1272;68992;-69
2023/01/28 13:57:23;;;;;;;22.30;15.40;;;;;;;0.62;67.08;100010.66;102883;1298;600380;-81
2023/01/28 14:00:20;;;;;;;22.20;15.10;;;;;;;0.56;66.69;100013.63;105164;1268;60435;-82
2023/01/28 14:03:12;;;;;;;22.40;13.30;;;;;;;0.57;66.50;100017.91;105434;1272;61964;-80
2023/01/28 14:06:17;;;;;;;33.70;15.80;;;;;;;0.58;66.67;100017.80;105572;1267;73638;-81
2023/01/28 14:09:13;;;;;;;19.20;13.40;;;;;;;0.61;66.51;100016.73;105435;1272;67900;-82
2023/01/28 14:11:56;;;;;;;19.00;12.00;;;;;;;0.63;65.70;100020.91;105215;1269;648891;-81
2023/01/28 14:14:24;;;;;;;;;;;;;;;0.64;65.99;100017.49;105710;1268;59262;-81
2023/01/28 14:17:02;;;;;;;18.30;12.50;;;;;;;0.65;65.79;100016.60;105488;1263;60633;-80
2023/01/28 14:19:32;;;;;;;23.80;13.20;;;;;;;0.63;65.96;100012.39;106072;1264;72624;-79
2023/01/28 14:22:08;;;;;;;19.90;11.70;;;;;;;0.58;65.47;100013.37;105777;1263;68511;-82
2023/01/28 14:24:37;;;;;;;15.90;10.90;;;;;;;0.53;66.08;100010.80;105956;1266;73978;-83
2023/01/28 14:27:36;;;;;;;18.30;11.10;;;;;;;0.51;65.77;100014.76;106166;1264;61020;-80
2023/01/28 14:30:15;;;;;;;18.30;11.30;;;;;;;0.43;65.62;100014.20;106321;1264;60165;-82
2023/01/28 14:32:48;;;;;;;19.60;10.30;;;;;;;0.40;66.22;100014.56;106449;1266;71711;-81
2023/01/28 14:35:32;;;;;;;20.00;9.90;;;;;;;0.40;66.58;100015.23;106272;1264;68409;-81
2023/01/28 14:38:06;;;;;;;14.10;10.10;;;;;;;0.41;66.38;100017.30;106208;1263;72050;-82
2023/01/28 14:40:36;;;;;;;17.20;11.00;;;;;;;0.36;66.54;100017.12;105920;1263;61210;-80
2023/01/28 14:43:07;;;;;;;17.10;11.50;;;;;;;0.35;66.63;100018.10;106162;1263;60851;-80
2023/01/28 14:46:34;;;;;;;18.30;12.70;;;;;;;0.34;66.75;100016.98;106216;1268;72907;-78
2023/01/28 14:49:18;;;;;;;19.80;12.20;;;;;;;0.31;66.81;100015.80;105734;1274;68579;-80
2023/01/28 14:52:11;;;;;;;20.90;12.80;;;;;;;0.26;66.94;100022.92;105400;1275;73229;-81
2023/01/28 14:54:52;;;;;;;21.90;12.40;;;;;;;0.24;67.25;100020.13;106145;1254;60839;-83
2023/01/28 14:57:52;;;;;;;23.20;13.50;;;;;;;0.23;67.55;100025.70;106246;1259;61840;-82
2023/01/28 15:00:33;;;;;;;17.30;12.60;;;;;;;0.22;67.60;100028.08;105909;1260;74677;-82
2023/01/28 15:03:16;;;;;;;26.10;14.70;;;;;;;0.21;67.42;100028.09;105875;1270;68784;-80
2023/01/28 15:06:10;;;;;;;26.10;14.50;;;;;;;0.18;67.61;100033.23;106472;1260;74331;-83
2023/01/28 15:08:41;;;;;;;21.50;11.80;;;;;;;0.13;67.79;100036.11;106127;1261;60246;-81
2023/01/28 15:11:12;;;;;;;25.90;14.60;;;;;;;0.08;67.71;100037.55;105831;1260;60806;-83
2023/01/28 15:13:49;;;;;;;17.30;10.40;;;;;;;0.04;67.78;100037.64;106140;1256;72556;-77
2023/01/28 15:16:23;;;;;;;19.90;12.60;;;;;;;-0.01;67.74;100037.67;106319;1260;68881;-82
2023/01/28 15:18:55;;;;;;;25.30;14.10;;;;;;;-0.04;67.81;100038.01;105755;1260;71145;-77
2023/01/28 15:21:29;;;;;;;45.00;23.50;;;;;;;-0.07;68.16;100040.27;105812;1258;59655;-86
2023/01/28 15:23:59;;;;;;;33.20;18.60;;;;;;;-0.10;68.48;100038.24;105602;1258;61941;-76
2023/01/28 15:26:32;;;;;;;31.40;20.60;;;;;;;-0.12;68.62;100037.61;105511;1262;74915;-80
2023/01/28 15:29:00;;;;;;;37.60;23.40;;;;;;;-0.16;68.59;100038.96;105878;1259;67242;-75
2023/01/28 15:31:33;;;;;;;28.40;18.10;;;;;;;-0.20;68.88;100040.90;105426;1267;74334;-79
2023/01/28 15:34:03;;;;;;;;;;;;;;;-0.22;69.13;100040.60;105949;1260;59612;-76
2023/01/28 15:36:31;;;;;;;24.30;16.20;;;;;;;-0.24;69.28;100039.89;105877;1260;59987;-78
2023/01/28 15:39:00;;;;;;;30.50;19.40;;;;;;;-0.26;69.37;100038.39;105791;1260;75055;-78
2023/01/28 15:41:38;;;;;;;35.30;22.00;;;;;;;-0.30;69.76;100048.18;106028;1260;69591;-80
2023/01/28 15:44:38;;;;;;;40.80;25.10;;;;;;;-0.37;70.11;100047.57;106196;1261;73267;-88
2023/01/28 15:47:31;;;;;;;34.70;22.50;;;;;;;-0.42;70.60;100049.87;106191;1264;60144;-90
2023/01/28 15:50:03;;;;;;;28.10;16.00;;;;;;;-0.50;71.10;100051.27;106124;1255;60681;-81
2023/01/28 15:52:37;;;;;;;30.40;17.90;;;;;;;-0.54;71.61;100047.53;105962;1260;72746;-76
2023/01/28 15:55:06;;;;;;;29.90;19.30;;;;;;;-0.60;71.94;100050.77;105810;1259;68245;-75
2023/01/28 15:57:34;;;;;;;24.30;17.10;;;;;;;-0.64;72.14;100048.81;105837;1260;74220;-79
2023/01/28 16:00:12;;;;;;;19.00;13.90;;;;;;;-0.68;72.73;100051.23;105820;1256;60800;-79
2023/01/28 16:02:51;;;;;;;20.20;13.90;;;;;;;-0.71;72.98;100052.61;105887;1254;60978;-78
2023/01/28 16:05:30;;;;;;;17.70;10.60;;;;;;;-0.72;73.34;100052.81;105345;1254;72673;-77
2023/01/28 16:08:01;;;;;;;11.50;9.20;;;;;;;-0.73;73.59;100057.25;105733;1260;66472;-82
2023/01/28 16:10:29;;;;;;;10.90;8.60;;;;;;;-0.72;73.86;100059.52;105650;1262;72157;-83
2023/01/28 16:13:25;;;;;;;11.00;7.70;;;;;;;-0.70;74.08;100061.83;105647;1263;60722;-82
2023/01/28 16:15:55;;;;;;;16.90;11.80;;;;;;;-0.69;74.55;100060.14;106146;1254;62157;-85
2023/01/28 16:18:40;;;;;;;13.30;8.90;;;;;;;-0.69;74.83;100063.08;105908;1260;72678;-76
2023/01/28 16:21:11;;;;;;;15.50;9.60;;;;;;;-0.71;75.10;100057.71;105783;1259;66878;-80
2023/01/28 16:23:39;;;;;;;15.70;9.60;;;;;;;-0.76;75.49;100057.21;105732;1260;73087;-80
2023/01/28 16:26:24;;;;;;;19.30;11.10;;;;;;;-0.82;76.34;100054.65;105701;1258;59651;-80
2023/01/28 16:29:19;;;;;;;14.90;10.70;;;;;;;-0.85;77.15;100053.27;105916;1260;60351;-82
2023/01/28 16:31:47;;;;;;;13.20;9.80;;;;;;;-0.85;77.40;100053.08;105908;1260;72603;-79
2023/01/28 16:34:16;;;;;;;11.60;8.00;;;;;;;-0.80;77.74;100054.16;105969;1260;67703;-79
2023/01/28 16:36:44;;;;;;;15.90;9.70;;;;;;;-0.73;78.26;100058.80;105883;1259;74872;-80
2023/01/28 16:39:12;;;;;;;20.10;13.50;;;;;;;-0.66;78.29;100060.67;105802;1260;60096;-79
2023/01/28 16:41:42;;;;;;;18.50;11.90;;;;;;;-0.64;78.63;100059.21;105992;1260;61884;-79
2023/01/28 16:44:12;;;;;;;18.80;12.50;;;;;;;-0.69;79.02;100059.42;105791;1261;74677;-89
2023/01/28 16:46:41;;;;;;;15.40;10.20;;;;;;;-0.69;79.38;100056.29;105948;1260;68054;-89
2023/01/28 16:49:14;;;;;;;15.30;11.50;;;;;;;-0.70;79.55;100055.42;105818;1254;73673;-88
2023/01/28 16:51:42;;;;;;;25.20;15.60;;;;;;;-0.70;79.71;100059.35;106068;1260;60354;-88
2023/01/28 16:54:12;;;;;;;17.50;11.50;;;;;;;-0.72;79.97;100057.16;105868;1260;60976;-78
2023/01/28 16:56:42;;;;;;;14.90;10.80;;;;;;;-0.73;80.04;100056.02;105719;1260;74199;-89
2023/01/28 16:59:14;;;;;;;15.60;9.50;;;;;;;-0.75;80.62;100056.71;105998;1259;68853;-80
2023/01/28 17:01:43;;;;;;;17.80;11.40;;;;;;;-0.76;80.76;100052.95;105671;1260;73228;-85
2023/01/28 17:04:12;;;;;;;18.90;12.80;;;;;;;-0.74;80.80;100059.95;105851;1260;59914;-84
2023/01/28 17:06:41;;;;;;;17.80;11.70;;;;;;;-0.70;80.73;100061.06;105876;1254;60590;-80
2023/01/28 17:09:11;;;;;;;20.70;13.60;;;;;;;-0.67;80.71;100065.45;105793;1262;72635;-85
2023/01/28 17:11:40;;;;;;;23.50;14.10;;;;;;;-0.64;80.83;100058.18;105915;1260;68808;-83
2023/01/28 17:14:10;;;;;;;19.20;12.40;;;;;;;-0.63;80.79;100060.65;105598;1260;72546;-77
2023/01/28 17:16:38;;;;;;;24.60;15.70;;;;;;;-0.62;80.91;100063.42;105973;1260;59647;-85
2023/01/28 17:19:07;;;;;;;21.60;12.30;;;;;;;-0.66;81.01;100068.02;106191;1259;59643;-80
2023/01/28 17:21:36;;;;;;;24.50;14.60;;;;;;;-0.71;81.16;100065.72;106036;1259;73763;-85
2023/01/28 17:24:05;;;;;;;18.60;12.90;;;;;;;-0.77;81.42;100062.77;106243;1254;68152;-81
2023/01/28 17:26:35;;;;;;;24.80;13.90;;;;;;;-0.77;81.73;100062.54;105853;1255;73497;-84
2023/01/28 17:29:04;;;;;;;23.80;15.30;;;;;;;-0.76;81.97;100062.95;105727;1255;59705;-84
2023/01/28 17:31:34;;;;;;;23.50;15.40;;;;;;;-0.74;81.81;100060.77;105798;1257;61813;-83
2023/01/28 17:34:06;;;;;;;23.20;14.80;;;;;;;-0.70;81.88;100057.20;105767;1263;74201;-83
2023/01/28 17:36:35;;;;;;;18.90;12.80;;;;;;;-0.70;81.78;100055.66;105737;1257;69500;-82
2023/01/28 17:39:05;;;;;;;30.60;20.00;;;;;;;-0.71;81.93;100054.83;105803;1255;72797;-80
2023/01/28 17:41:35;;;;;;;32.90;19.70;;;;;;;-0.75;81.97;100053.59;105527;1261;59705;-81
2023/01/28 17:44:03;;;;;;;34.40;22.10;;;;;;;-0.81;82.21;100056.54;105887;1260;60303;-81
2023/01/28 17:46:31;;;;;;;34.60;21.30;;;;;;;-0.86;82.28;100055.16;105571;1260;73367;-83
2023/01/28 17:49:00;;;;;;;29.10;18.00;;;;;;;-0.90;82.61;100058.98;105993;1258;69031;-81
2023/01/28 17:51:29;;;;;;;30.00;17.50;;;;;;;-0.91;82.86;100061.09;105777;1262;72864;-77
2023/01/28 17:53:58;;;;;;;31.20;19.50;;;;;;;-0.93;82.84;100062.39;105746;1258;59672;-78
2023/01/28 17:56:28;;;;;;;36.90;21.50;;;;;;;-0.93;82.85;100066.02;105688;1257;62173;-76
2023/01/28 21:59:27;;;;;;;9.70;7.80;;;;;;;-3.39;99.64;100098.63;103174;1295;600797;-83
2023/01/28 22:02:30;;;;;;;16.70;10.30;;;;;;;-3.44;99.72;100098.27;105943;1276;63523;-76
2023/01/28 22:05:05;;;;;;;14.00;9.10;;;;;;;-3.43;99.81;100100.08;106731;1269;60431;-80
2023/01/28 22:07:38;;;;;;;;;;;;;;;-3.41;100.00;100095.90;106397;1268;73051;-78
2023/01/28 22:10:09;;;;;;;13.20;8.50;;;;;;;-3.39;99.91;100094.44;104923;1267;68901;-70
2023/01/28 22:12:39;;;;;;;16.60;11.20;;;;;;;-3.33;99.95;100100.52;104628;1266;685279;-74
2023/01/28 22:15:08;;;;;;;17.20;13.80;;;;;;;-3.32;99.77;100097.23;105527;1267;61464;-76
2023/01/28 22:17:37;;;;;;;17.10;11.70;;;;;;;-3.30;99.91;100097.86;106446;1260;61656;-72
2023/01/28 22:20:06;;;;;;;18.00;12.10;;;;;;;-3.26;99.74;100100.34;105633;1259;73153;-72
2023/01/28 22:22:35;;;;;;;13.60;10.50;;;;;;;-3.23;99.51;100097.67;106659;1265;67256;-77
2023/01/28 22:25:06;;;;;;;12.10;7.90;;;;;;;-3.23;99.26;100092.15;106914;1261;72005;-77
2023/01/28 22:27:35;;;;;;;21.70;13.70;;;;;;;-3.24;99.11;100091.21;106107;1262;61900;-75
2023/01/28 22:30:03;;;;;;;16.40;11.50;;;;;;;-3.24;99.37;100085.56;106676;1260;59661;-72
2023/01/28 22:32:33;;;;;;;19.70;14.30;;;;;;;-3.28;98.95;100085.21;106766;1260;74783;-83
2023/01/28 22:35:03;;;;;;;13.10;10.20;;;;;;;-3.27;98.91;100087.82;105641;1261;66711;-79
2023/01/28 22:37:33;;;;;;;7.70;5.80;;;;;;;-3.28;99.21;100086.33;105511;1260;73839;-74
2023/01/28 22:40:02;;;;;;;16.90;11.00;;;;;;;-3.31;99.06;100083.77;105002;1260;60017;-75
2023/01/28 22:42:31;;;;;;;20.60;12.80;;;;;;;-3.33;99.29;100079.11;105480;1260;61182;-75
2023/01/28 22:45:02;;;;;;;12.90;9.80;;;;;;;-3.35;99.36;100078.60;105548;1265;72725;-77
2023/01/28 22:47:30;;;;;;;14.40;10.10;;;;;;;-3.41;99.60;100078.12;105537;1261;67130;-77
2023/01/28 22:49:59;;;;;;;19.60;11.70;;;;;;;-3.44;99.83;100076.20;105506;1266;73484;-73
2023/01/28 22:52:27;;;;;;;15.80;10.70;;;;;;;-3.44;99.97;100073.52;105488;1263;62264;-75
2023/01/28 22:54:56;;;;;;;17.70;11.40;;;;;;;-3.42;99.99;100076.17;105301;1261;62093;-73
2023/01/28 22:57:23;;;;;;;14.70;11.00;;;;;;;-3.43;99.95;100073.13;105454;1265;72861;-77
2023/01/28 22:59:53;;;;;;;14.80;10.20;;;;;;;-3.45;99.98;100074.01;105449;1263;68277;-72
2023/01/28 23:02:27;;;;;;;16.60;12.30;;;;;;;-3.51;100.00;100071.48;105502;1263;72669;-76
2023/01/28 23:04:56;;;;;;;19.20;12.60;;;;;;;-3.55;100.00;100074.95;105426;1262;60489;-74
2023/01/28 23:07:24;;;;;;;13.30;9.80;;;;;;;-3.57;100.00;100070.23;105461;1262;60305;-81
2023/01/28 23:09:52;;;;;;;18.10;10.10;;;;;;;-3.58;100.00;100068.92;105495;1263;75488;-73
2023/01/28 23:12:21;;;;;;;15.30;11.10;;;;;;;-3.54;100.00;100070.48;105489;1262;68100;-76
2023/01/28 23:26:02;;;;;;;33.30;16.20;;;;;;;-3.56;100.00;100054.23;105999;1256;68858;-84
2023/01/28 23:28:32;;;;;;;20.60;13.40;;;;;;;-3.56;100.00;100055.91;106802;1256;72673;-78
2023/01/28 23:31:00;;;;;;;18.50;11.40;;;;;;;-3.55;100.00;100054.27;106337;1256;60282;-82
2023/01/28 23:33:30;;;;;;;18.70;11.90;;;;;;;-3.53;100.00;100056.66;106495;1257;59850;-75
2023/01/28 23:35:58;;;;;;;15.50;10.70;;;;;;;-3.57;100.00;100055.16;106528;1256;73931;-75
2023/01/28 23:38:27;;;;;;;17.20;11.90;;;;;;;-3.58;100.00;100052.46;106311;1257;66133;-75